No particular awareness of the weather is required.    There are no Weather-warnings


Meteo18 Weather Cam more information Meteo18 Weather Cam


Thunder radar more information blitzortung!


Rain radar more information rain snow radar


Visit our other weather sites:

Template documentation
and downloads

And another site



Weather Underground History page Text

Daily Summary for April 4, 2017 Units:  Both    English   Metric
« Previous Day
Next Day »
Daily Weekly Monthly Yearly Custom
  High: Low: Average:
Temperature: 63.3 °F /  17.4 °C 44.1 °F /  6.7 °C 53.4 °F /  11.9 °C
Dew Point: 50.2 °F /  10.1 °C 38.8 °F /  3.8 °C 44.4 °F /  6.9 °C
Humidity: 87 % 54 % 72 %
Wind Speed: 12 mph /  19.3 km/h - 1.8 mph /  2.9 km/h
Wind Gust: 14 mph /  22.5 km/h - -
Wind:- - WSW
Pressure: 30.3 in /  1025.6 hPa 30.2 in /  1023.2 hPa -
Precipitation: 0 in /  0.0 mm    
Historical Graphs
 
 
Tabular Data for April 4, 2017
Time Temperature Dew Point Pressure Wind Wind Speed Wind Gust Humidity Rainfall Rate (Hourly)
00:02 50.2 °F /  10.1 °C 41.5 °F /  5.3 °C 30.3 in /  1025.3 hPa WNW 2 mph /  3.2 km/h 2 mph /  3.2 km/h 72 % 0 in /  0.0 mm
00:12 49.8 °F /  9.9 °C 41.5 °F /  5.3 °C 30.3 in /  1025.6 hPa WNW 2 mph /  3.2 km/h 2 mph /  3.2 km/h 73 % 0 in /  0.0 mm
00:17 49.6 °F /  9.8 °C 41.4 °F /  5.2 °C 30.3 in /  1025.6 hPa WNW 1 mph /  1.6 km/h 2 mph /  3.2 km/h 73 % 0 in /  0.0 mm
00:22 49.8 °F /  9.9 °C 41.5 °F /  5.3 °C 30.3 in /  1025.6 hPa WNW 1 mph /  1.6 km/h 2 mph /  3.2 km/h 73 % 0 in /  0.0 mm
00:32 49.8 °F /  9.9 °C 41.2 °F /  5.1 °C 30.3 in /  1025.6 hPa WNW 2 mph /  3.2 km/h 2 mph /  3.2 km/h 72 % 0 in /  0.0 mm
00:42 49.5 °F /  9.7 °C 41.2 °F /  5.1 °C 30.3 in /  1025.6 hPa Calm   2 mph /  3.2 km/h 73 % 0 in /  0.0 mm
00:47 49.3 °F /  9.6 °C 41 °F /  5.0 °C 30.3 in /  1025.6 hPa NW 1 mph /  1.6 km/h 2 mph /  3.2 km/h 73 % 0 in /  0.0 mm
00:52 49.3 °F /  9.6 °C 41 °F /  5.0 °C 30.3 in /  1025.3 hPa NW 1 mph /  1.6 km/h 1 mph /  1.6 km/h 73 % 0 in /  0.0 mm
00:57 49.5 °F /  9.7 °C 41.2 °F /  5.1 °C 30.3 in /  1025.3 hPa NW 1 mph /  1.6 km/h 2 mph /  3.2 km/h 73 % 0 in /  0.0 mm
01:02 48.9 °F /  9.4 °C 41 °F /  5.0 °C 30.3 in /  1025.3 hPa WNW 2 mph /  3.2 km/h 2 mph /  3.2 km/h 74 % 0 in /  0.0 mm
01:12 48.7 °F /  9.3 °C 40.8 °F /  4.9 °C 30.3 in /  1025.3 hPa WNW 2 mph /  3.2 km/h 3 mph /  4.8 km/h 74 % 0 in /  0.0 mm
01:17 48.6 °F /  9.2 °C 40.6 °F /  4.8 °C 30.3 in /  1025.3 hPa WNW 2 mph /  3.2 km/h 3 mph /  4.8 km/h 74 % 0 in /  0.0 mm
01:22 48 °F /  8.9 °C 40.5 °F /  4.7 °C 30.3 in /  1025.3 hPa Calm   2 mph /  3.2 km/h 75 % 0 in /  0.0 mm
01:27 48 °F /  8.9 °C 40.5 °F /  4.7 °C 30.3 in /  1025.3 hPa WNW 1 mph /  1.6 km/h 2 mph /  3.2 km/h 75 % 0 in /  0.0 mm
01:32 48.4 °F /  9.1 °C 40.8 °F /  4.9 °C 30.3 in /  1025.3 hPa Calm   2 mph /  3.2 km/h 75 % 0 in /  0.0 mm
01:37 47.7 °F /  8.7 °C 40.5 °F /  4.7 °C 30.3 in /  1025.3 hPa WNW 1 mph /  1.6 km/h 1 mph /  1.6 km/h 76 % 0 in /  0.0 mm
01:42 47.1 °F /  8.4 °C 40.6 °F /  4.8 °C 30.3 in /  1025.3 hPa WNW 2 mph /  3.2 km/h 2 mph /  3.2 km/h 78 % 0 in /  0.0 mm
01:47 47.3 °F /  8.5 °C 40.5 °F /  4.7 °C 30.3 in /  1025.3 hPa WNW 2 mph /  3.2 km/h 2 mph /  3.2 km/h 77 % 0 in /  0.0 mm
01:52 47.5 °F /  8.6 °C 40.3 °F /  4.6 °C 30.3 in /  1025.3 hPa WNW 1 mph /  1.6 km/h 3 mph /  4.8 km/h 76 % 0 in /  0.0 mm
01:57 46.9 °F /  8.3 °C 40.1 °F /  4.5 °C 30.3 in /  1025.3 hPa WNW 2 mph /  3.2 km/h 3 mph /  4.8 km/h 77 % 0 in /  0.0 mm
02:02 46.9 °F /  8.3 °C 40.5 °F /  4.7 °C 30.3 in /  1025.3 hPa WNW 2 mph /  3.2 km/h 3 mph /  4.8 km/h 78 % 0 in /  0.0 mm
02:07 47.1 °F /  8.4 °C 40.3 °F /  4.6 °C 30.3 in /  1025.3 hPa WNW 1 mph /  1.6 km/h 2 mph /  3.2 km/h 77 % 0 in /  0.0 mm
02:12 47.1 °F /  8.4 °C 40.3 °F /  4.6 °C 30.3 in /  1025.3 hPa WNW 2 mph /  3.2 km/h 2 mph /  3.2 km/h 77 % 0 in /  0.0 mm
02:17 46.8 °F /  8.2 °C 39.9 °F /  4.4 °C 30.3 in /  1025.3 hPa WNW 2 mph /  3.2 km/h 2 mph /  3.2 km/h 77 % 0 in /  0.0 mm
02:22 46.6 °F /  8.1 °C 40.1 °F /  4.5 °C 30.3 in /  1024.9 hPa WNW 2 mph /  3.2 km/h 2 mph /  3.2 km/h 78 % 0 in /  0.0 mm
02:27 46.6 °F /  8.1 °C 40.1 °F /  4.5 °C 30.3 in /  1024.9 hPa Calm   2 mph /  3.2 km/h 78 % 0 in /  0.0 mm
02:32 46.6 °F /  8.1 °C 40.1 °F /  4.5 °C 30.3 in /  1024.9 hPa WNW 1 mph /  1.6 km/h 2 mph /  3.2 km/h 78 % 0 in /  0.0 mm
02:37 46.4 °F /  8.0 °C 39.9 °F /  4.4 °C 30.3 in /  1024.9 hPa WNW 2 mph /  3.2 km/h 2 mph /  3.2 km/h 78 % 0 in /  0.0 mm
02:42 46.4 °F /  8.0 °C 40.3 °F /  4.6 °C 30.3 in /  1024.9 hPa WNW 2 mph /  3.2 km/h 2 mph /  3.2 km/h 79 % 0 in /  0.0 mm
02:47 46.8 °F /  8.2 °C 40.3 °F /  4.6 °C 30.3 in /  1024.9 hPa WNW 1 mph /  1.6 km/h 2 mph /  3.2 km/h 78 % 0 in /  0.0 mm
02:52 46.8 °F /  8.2 °C 40.3 °F /  4.6 °C 30.3 in /  1024.9 hPa WNW 2 mph /  3.2 km/h 2 mph /  3.2 km/h 78 % 0 in /  0.0 mm
02:57 46.6 °F /  8.1 °C 39.7 °F /  4.3 °C 30.3 in /  1024.9 hPa WNW 2 mph /  3.2 km/h 2 mph /  3.2 km/h 77 % 0 in /  0.0 mm
03:02 46 °F /  7.8 °C 39.9 °F /  4.4 °C 30.3 in /  1024.9 hPa WNW 1 mph /  1.6 km/h 2 mph /  3.2 km/h 79 % 0 in /  0.0 mm
03:07 46.2 °F /  7.9 °C 40.1 °F /  4.5 °C 30.3 in /  1024.9 hPa WNW 1 mph /  1.6 km/h 2 mph /  3.2 km/h 79 % 0 in /  0.0 mm
03:12 46.2 °F /  7.9 °C 40.1 °F /  4.5 °C 30.3 in /  1024.9 hPa Calm   2 mph /  3.2 km/h 79 % 0 in /  0.0 mm
03:22 45.5 °F /  7.5 °C 39.7 °F /  4.3 °C 30.3 in /  1024.9 hPa WNW 1 mph /  1.6 km/h 1 mph /  1.6 km/h 80 % 0 in /  0.0 mm
03:32 45.3 °F /  7.4 °C 39.6 °F /  4.2 °C 30.3 in /  1024.6 hPa WNW 1 mph /  1.6 km/h 2 mph /  3.2 km/h 80 % 0 in /  0.0 mm
03:37 45.1 °F /  7.3 °C 39.4 °F /  4.1 °C 30.3 in /  1024.6 hPa Calm   2 mph /  3.2 km/h 80 % 0 in /  0.0 mm
03:42 44.8 °F /  7.1 °C 39.4 °F /  4.1 °C 30.3 in /  1024.6 hPa WNW 2 mph /  3.2 km/h 2 mph /  3.2 km/h 81 % 0 in /  0.0 mm
03:47 45 °F /  7.2 °C 39.6 °F /  4.2 °C 30.3 in /  1024.6 hPa Calm   2 mph /  3.2 km/h 81 % 0 in /  0.0 mm
03:52 45.7 °F /  7.6 °C 40.1 °F /  4.5 °C 30.3 in /  1024.9 hPa Calm   2 mph /  3.2 km/h 81 % 0 in /  0.0 mm
03:57 45.9 °F /  7.7 °C 39.7 °F /  4.3 °C 30.3 in /  1024.9 hPa Calm   2 mph /  3.2 km/h 79 % 0 in /  0.0 mm
04:02 45.7 °F /  7.6 °C 39.6 °F /  4.2 °C 30.3 in /  1024.9 hPa Calm   1 mph /  1.6 km/h 79 % 0 in /  0.0 mm
04:07 45.1 °F /  7.3 °C 39.4 °F /  4.1 °C 30.3 in /  1024.6 hPa Calm   1 mph /  1.6 km/h 80 % 0 in /  0.0 mm
04:12 45 °F /  7.2 °C 39.6 °F /  4.2 °C 30.3 in /  1024.9 hPa Calm   1 mph /  1.6 km/h 81 % 0 in /  0.0 mm
04:17 45 °F /  7.2 °C 39.7 °F /  4.3 °C 30.3 in /  1024.9 hPa Calm   1 mph /  1.6 km/h 82 % 0 in /  0.0 mm
04:22 45 °F /  7.2 °C 39.6 °F /  4.2 °C 30.3 in /  1024.9 hPa Calm   1 mph /  1.6 km/h 81 % 0 in /  0.0 mm
04:27 45.1 °F /  7.3 °C 39.7 °F /  4.3 °C 30.3 in /  1024.6 hPa Calm   1 mph /  1.6 km/h 81 % 0 in /  0.0 mm
04:32 45.1 °F /  7.3 °C 39.7 °F /  4.3 °C 30.3 in /  1024.6 hPa Calm     81 % 0 in /  0.0 mm
04:37 44.6 °F /  7.0 °C 39.2 °F /  4.0 °C 30.3 in /  1024.6 hPa Calm   1 mph /  1.6 km/h 81 % 0 in /  0.0 mm
04:42 44.2 °F /  6.8 °C 39 °F /  3.9 °C 30.3 in /  1024.6 hPa Calm   1 mph /  1.6 km/h 82 % 0 in /  0.0 mm
04:47 44.1 °F /  6.7 °C 38.8 °F /  3.8 °C 30.3 in /  1024.6 hPa Calm   1 mph /  1.6 km/h 82 % 0 in /  0.0 mm
04:52 44.1 °F /  6.7 °C 39.2 °F /  4.0 °C 30.3 in /  1024.6 hPa Calm   1 mph /  1.6 km/h 83 % 0 in /  0.0 mm
04:57 44.4 °F /  6.9 °C 39.2 °F /  4.0 °C 30.3 in /  1024.6 hPa Calm     82 % 0 in /  0.0 mm
05:02 44.8 °F /  7.1 °C 39.6 °F /  4.2 °C 30.3 in /  1024.9 hPa Calm     82 % 0 in /  0.0 mm
05:12 45.3 °F /  7.4 °C 39.9 °F /  4.4 °C 30.3 in /  1024.6 hPa Calm     81 % 0 in /  0.0 mm
05:17 45.5 °F /  7.5 °C 40.3 °F /  4.6 °C 30.3 in /  1024.6 hPa Calm   2 mph /  3.2 km/h 82 % 0 in /  0.0 mm
05:22 45.9 °F /  7.7 °C 40.1 °F /  4.5 °C 30.3 in /  1024.6 hPa Calm   2 mph /  3.2 km/h 80 % 0 in /  0.0 mm
05:27 45.7 °F /  7.6 °C 40.5 °F /  4.7 °C 30.3 in /  1024.6 hPa Calm   2 mph /  3.2 km/h 82 % 0 in /  0.0 mm
05:32 45.3 °F /  7.4 °C 40.5 °F /  4.7 °C 30.3 in /  1024.6 hPa Calm   2 mph /  3.2 km/h 83 % 0 in /  0.0 mm
05:37 45.1 °F /  7.3 °C 40.3 °F /  4.6 °C 30.3 in /  1024.6 hPa Calm   2 mph /  3.2 km/h 83 % 0 in /  0.0 mm
05:42 45.3 °F /  7.4 °C 40.8 °F /  4.9 °C 30.3 in /  1024.6 hPa NE 5 mph /  8.0 km/h 5 mph /  8.0 km/h 84 % 0 in /  0.0 mm
05:52 45 °F /  7.2 °C 40.6 °F /  4.8 °C 30.3 in /  1024.6 hPa Calm   8 mph /  12.9 km/h 85 % 0 in /  0.0 mm
05:57 44.8 °F /  7.1 °C 40.8 °F /  4.9 °C 30.3 in /  1024.6 hPa Calm   8 mph /  12.9 km/h 86 % 0 in /  0.0 mm
06:02 44.8 °F /  7.1 °C 41.2 °F /  5.1 °C 30.3 in /  1024.6 hPa Calm   5 mph /  8.0 km/h 87 % 0 in /  0.0 mm
06:12 45 °F /  7.2 °C 41.4 °F /  5.2 °C 30.3 in /  1024.6 hPa Calm   2 mph /  3.2 km/h 87 % 0 in /  0.0 mm
06:17 45.1 °F /  7.3 °C 41.5 °F /  5.3 °C 30.3 in /  1024.9 hPa NW 1 mph /  1.6 km/h 2 mph /  3.2 km/h 87 % 0 in /  0.0 mm
06:22 45.3 °F /  7.4 °C 41.7 °F /  5.4 °C 30.3 in /  1024.9 hPa NNW 1 mph /  1.6 km/h 7 mph /  11.3 km/h 87 % 0 in /  0.0 mm
06:27 45.5 °F /  7.5 °C 41.5 °F /  5.3 °C 30.3 in /  1024.9 hPa NW 1 mph /  1.6 km/h 7 mph /  11.3 km/h 86 % 0 in /  0.0 mm
06:32 45.7 °F /  7.6 °C 41.7 °F /  5.4 °C 30.3 in /  1024.9 hPa Calm   2 mph /  3.2 km/h 86 % 0 in /  0.0 mm
06:42 46 °F /  7.8 °C 41.5 °F /  5.3 °C 30.3 in /  1024.6 hPa Calm   1 mph /  1.6 km/h 84 % 0 in /  0.0 mm
06:47 46 °F /  7.8 °C 41.7 °F /  5.4 °C 30.3 in /  1024.6 hPa Calm   1 mph /  1.6 km/h 85 % 0 in /  0.0 mm
06:52 45.9 °F /  7.7 °C 41.5 °F /  5.3 °C 30.3 in /  1024.6 hPa Calm   2 mph /  3.2 km/h 85 % 0 in /  0.0 mm
07:02 45.9 °F /  7.7 °C 41.5 °F /  5.3 °C 30.3 in /  1024.6 hPa Calm   2 mph /  3.2 km/h 85 % 0 in /  0.0 mm
07:07 46 °F /  7.8 °C 41.7 °F /  5.4 °C 30.3 in /  1024.6 hPa Calm   2 mph /  3.2 km/h 85 % 0 in /  0.0 mm
07:12 45.9 °F /  7.7 °C 41.9 °F /  5.5 °C 30.3 in /  1024.6 hPa Calm   2 mph /  3.2 km/h 86 % 0 in /  0.0 mm
07:17 45.7 °F /  7.6 °C 41.7 °F /  5.4 °C 30.3 in /  1024.6 hPa Calm   1 mph /  1.6 km/h 86 % 0 in /  0.0 mm
07:22 45.7 °F /  7.6 °C 41.7 °F /  5.4 °C 30.3 in /  1024.6 hPa Calm   1 mph /  1.6 km/h 86 % 0 in /  0.0 mm
07:32 45.5 °F /  7.5 °C 41.9 °F /  5.5 °C 30.3 in /  1024.6 hPa Calm   1 mph /  1.6 km/h 87 % 0 in /  0.0 mm
07:37 45.5 °F /  7.5 °C 41.9 °F /  5.5 °C 30.3 in /  1024.6 hPa Calm   1 mph /  1.6 km/h 87 % 0 in /  0.0 mm
07:42 45.7 °F /  7.6 °C 42.1 °F /  5.6 °C 30.3 in /  1024.6 hPa Calm   1 mph /  1.6 km/h 87 % 0 in /  0.0 mm
07:52 46 °F /  7.8 °C 42.1 °F /  5.6 °C 30.3 in /  1024.6 hPa Calm   1 mph /  1.6 km/h 86 % 0 in /  0.0 mm
07:57 46 °F /  7.8 °C 42.1 °F /  5.6 °C 30.3 in /  1024.9 hPa Calm   1 mph /  1.6 km/h 86 % 0 in /  0.0 mm
08:02 46 °F /  7.8 °C 42.1 °F /  5.6 °C 30.3 in /  1024.9 hPa NNE 2 mph /  3.2 km/h 2 mph /  3.2 km/h 86 % 0 in /  0.0 mm
08:12 46.9 °F /  8.3 °C 42.4 °F /  5.8 °C 30.3 in /  1024.9 hPa NNW 1 mph /  1.6 km/h 3 mph /  4.8 km/h 84 % 0 in /  0.0 mm
08:17 46.9 °F /  8.3 °C 42.4 °F /  5.8 °C 30.3 in /  1024.9 hPa Calm   3 mph /  4.8 km/h 84 % 0 in /  0.0 mm
08:22 46.9 °F /  8.3 °C 42.6 °F /  5.9 °C 30.3 in /  1024.9 hPa Calm   1 mph /  1.6 km/h 85 % 0 in /  0.0 mm
08:32 46.8 °F /  8.2 °C 42.4 °F /  5.8 °C 30.3 in /  1024.9 hPa Calm   2 mph /  3.2 km/h 85 % 0 in /  0.0 mm
08:37 46.8 °F /  8.2 °C 42.4 °F /  5.8 °C 30.3 in /  1024.9 hPa North 2 mph /  3.2 km/h 2 mph /  3.2 km/h 85 % 0 in /  0.0 mm
08:42 47.3 °F /  8.5 °C 43 °F /  6.1 °C 30.3 in /  1024.9 hPa Calm   3 mph /  4.8 km/h 85 % 0 in /  0.0 mm
08:47 48.2 °F /  9.0 °C 43.3 °F /  6.3 °C 30.3 in /  1024.9 hPa Calm   3 mph /  4.8 km/h 83 % 0 in /  0.0 mm
08:52 49.5 °F /  9.7 °C 43.5 °F /  6.4 °C 30.3 in /  1024.9 hPa Calm   3 mph /  4.8 km/h 80 % 0 in /  0.0 mm
08:57 50.5 °F /  10.3 °C 43.5 °F /  6.4 °C 30.3 in /  1024.9 hPa Calm   1 mph /  1.6 km/h 77 % 0 in /  0.0 mm
09:02 50.5 °F /  10.3 °C 44.6 °F /  7.0 °C 30.3 in /  1024.9 hPa Calm     80 % 0 in /  0.0 mm
09:12 50.5 °F /  10.3 °C 45.3 °F /  7.4 °C 30.3 in /  1024.9 hPa Calm   1 mph /  1.6 km/h 82 % 0 in /  0.0 mm
09:17 51.3 °F /  10.7 °C 46 °F /  7.8 °C 30.3 in /  1024.9 hPa Calm   1 mph /  1.6 km/h 82 % 0 in /  0.0 mm
09:22 52.5 °F /  11.4 °C 46.6 °F /  8.1 °C 30.3 in /  1024.9 hPa Calm   1 mph /  1.6 km/h 80 % 0 in /  0.0 mm
09:27 53.8 °F /  12.1 °C 46.4 °F /  8.0 °C 30.3 in /  1024.9 hPa Calm   1 mph /  1.6 km/h 76 % 0 in /  0.0 mm
09:32 54 °F /  12.2 °C 47.3 °F /  8.5 °C 30.3 in /  1024.9 hPa Calm   1 mph /  1.6 km/h 78 % 0 in /  0.0 mm
09:37 54.1 °F /  12.3 °C 47.1 °F /  8.4 °C 30.3 in /  1024.9 hPa Calm   1 mph /  1.6 km/h 77 % 0 in /  0.0 mm
09:42 54.3 °F /  12.4 °C 47.7 °F /  8.7 °C 30.3 in /  1024.9 hPa East 1 mph /  1.6 km/h 2 mph /  3.2 km/h 78 % 0 in /  0.0 mm
09:47 54.9 °F /  12.7 °C 47.8 °F /  8.8 °C 30.3 in /  1024.9 hPa Calm   2 mph /  3.2 km/h 77 % 0 in /  0.0 mm
09:52 55.2 °F /  12.9 °C 47.8 °F /  8.8 °C 30.3 in /  1024.9 hPa ESE 1 mph /  1.6 km/h 2 mph /  3.2 km/h 76 % 0 in /  0.0 mm
09:57 56.1 °F /  13.4 °C 48 °F /  8.9 °C 30.3 in /  1024.9 hPa East 1 mph /  1.6 km/h 2 mph /  3.2 km/h 74 % 0 in /  0.0 mm
10:02 55.9 °F /  13.3 °C 47.1 °F /  8.4 °C 30.3 in /  1024.9 hPa East 1 mph /  1.6 km/h 2 mph /  3.2 km/h 72 % 0 in /  0.0 mm
10:07 56.8 °F /  13.8 °C 47.1 °F /  8.4 °C 30.3 in /  1024.9 hPa SE 1 mph /  1.6 km/h 2 mph /  3.2 km/h 70 % 0 in /  0.0 mm
10:12 57.6 °F /  14.2 °C 46.8 °F /  8.2 °C 30.3 in /  1024.9 hPa SE 1 mph /  1.6 km/h 2 mph /  3.2 km/h 67 % 0 in /  0.0 mm
10:17 57.7 °F /  14.3 °C 47.3 °F /  8.5 °C 30.3 in /  1024.9 hPa SSE 1 mph /  1.6 km/h 3 mph /  4.8 km/h 68 % 0 in /  0.0 mm
10:22 57.7 °F /  14.3 °C 47.7 °F /  8.7 °C 30.3 in /  1024.9 hPa Calm   3 mph /  4.8 km/h 69 % 0 in /  0.0 mm
10:32 58.5 °F /  14.7 °C 49.1 °F /  9.5 °C 30.3 in /  1024.9 hPa SE 3 mph /  4.8 km/h 3 mph /  4.8 km/h 71 % 0 in /  0.0 mm
10:42 58.5 °F /  14.7 °C 48.7 °F /  9.3 °C 30.3 in /  1025.3 hPa ESE 3 mph /  4.8 km/h 4 mph /  6.4 km/h 70 % 0 in /  0.0 mm
10:47 58.5 °F /  14.7 °C 49.5 °F /  9.7 °C 30.3 in /  1025.3 hPa East 1 mph /  1.6 km/h 3 mph /  4.8 km/h 72 % 0 in /  0.0 mm
10:52 58.3 °F /  14.6 °C 49.6 °F /  9.8 °C 30.3 in /  1025.3 hPa Calm   3 mph /  4.8 km/h 73 % 0 in /  0.0 mm
10:57 58.3 °F /  14.6 °C 49.6 °F /  9.8 °C 30.3 in /  1025.3 hPa East 2 mph /  3.2 km/h 3 mph /  4.8 km/h 73 % 0 in /  0.0 mm
11:02 57.9 °F /  14.4 °C 49.6 °F /  9.8 °C 30.3 in /  1024.9 hPa SE 1 mph /  1.6 km/h 3 mph /  4.8 km/h 74 % 0 in /  0.0 mm
11:07 58.5 °F /  14.7 °C 48.7 °F /  9.3 °C 30.3 in /  1024.9 hPa East 3 mph /  4.8 km/h 3 mph /  4.8 km/h 70 % 0 in /  0.0 mm
11:12 58.6 °F /  14.8 °C 48.9 °F /  9.4 °C 30.3 in /  1024.9 hPa ESE 4 mph /  6.4 km/h 4 mph /  6.4 km/h 70 % 0 in /  0.0 mm
11:17 59.4 °F /  15.2 °C 50 °F /  10.0 °C 30.3 in /  1024.9 hPa SE 1 mph /  1.6 km/h 4 mph /  6.4 km/h 71 % 0 in /  0.0 mm
11:22 59.7 °F /  15.4 °C 50 °F /  10.0 °C 30.3 in /  1024.9 hPa ESE 3 mph /  4.8 km/h 4 mph /  6.4 km/h 70 % 0 in /  0.0 mm
11:27 59.5 °F /  15.3 °C 49.3 °F /  9.6 °C 30.3 in /  1024.9 hPa SE 1 mph /  1.6 km/h 5 mph /  8.0 km/h 69 % 0 in /  0.0 mm
11:32 59.5 °F /  15.3 °C 48.6 °F /  9.2 °C 30.3 in /  1024.9 hPa SSE 3 mph /  4.8 km/h 5 mph /  8.0 km/h 67 % 0 in /  0.0 mm
11:37 60.1 °F /  15.6 °C 50.2 °F /  10.1 °C 30.3 in /  1024.9 hPa ENE 2 mph /  3.2 km/h 5 mph /  8.0 km/h 70 % 0 in /  0.0 mm
11:42 60.3 °F /  15.7 °C 49.3 °F /  9.6 °C 30.3 in /  1024.9 hPa SE 1 mph /  1.6 km/h 5 mph /  8.0 km/h 67 % 0 in /  0.0 mm
11:47 60.3 °F /  15.7 °C 50 °F /  10.0 °C 30.3 in /  1024.9 hPa SSE 2 mph /  3.2 km/h 4 mph /  6.4 km/h 69 % 0 in /  0.0 mm
11:52 60.1 °F /  15.6 °C 49.5 °F /  9.7 °C 30.3 in /  1024.9 hPa Calm   4 mph /  6.4 km/h 68 % 0 in /  0.0 mm
11:57 59.9 °F /  15.5 °C 48.6 °F /  9.2 °C 30.3 in /  1024.9 hPa SSW 1 mph /  1.6 km/h 3 mph /  4.8 km/h 66 % 0 in /  0.0 mm
12:02 60.1 °F /  15.6 °C 47.8 °F /  8.8 °C 30.3 in /  1024.9 hPa South 1 mph /  1.6 km/h 3 mph /  4.8 km/h 64 % 0 in /  0.0 mm
12:07 60.1 °F /  15.6 °C 47.5 °F /  8.6 °C 30.3 in /  1024.9 hPa SSW 1 mph /  1.6 km/h 3 mph /  4.8 km/h 63 % 0 in /  0.0 mm
12:12 60.3 °F /  15.7 °C 46.4 °F /  8.0 °C 30.3 in /  1024.9 hPa South 2 mph /  3.2 km/h 3 mph /  4.8 km/h 60 % 0 in /  0.0 mm
12:17 60.3 °F /  15.7 °C 46.4 °F /  8.0 °C 30.3 in /  1024.9 hPa SSW 3 mph /  4.8 km/h 5 mph /  8.0 km/h 60 % 0 in /  0.0 mm
12:22 60.3 °F /  15.7 °C 46.4 °F /  8.0 °C 30.3 in /  1024.9 hPa SSW 5 mph /  8.0 km/h 6 mph /  9.7 km/h 60 % 0 in /  0.0 mm
12:27 60.3 °F /  15.7 °C 46.4 °F /  8.0 °C 30.3 in /  1024.9 hPa SSW 8 mph /  12.9 km/h 8 mph /  12.9 km/h 60 % 0 in /  0.0 mm
12:32 60.3 °F /  15.7 °C 46.8 °F /  8.2 °C 30.3 in /  1024.9 hPa SSW 3 mph /  4.8 km/h 8 mph /  12.9 km/h 61 % 0 in /  0.0 mm
12:42 61 °F /  16.1 °C 46.6 °F /  8.1 °C 30.3 in /  1024.6 hPa SW 5 mph /  8.0 km/h 8 mph /  12.9 km/h 59 % 0 in /  0.0 mm
12:47 60.8 °F /  16.0 °C 46.4 °F /  8.0 °C 30.3 in /  1024.6 hPa SSW 6 mph /  9.7 km/h 8 mph /  12.9 km/h 59 % 0 in /  0.0 mm
12:52 60.4 °F /  15.8 °C 46.9 °F /  8.3 °C 30.3 in /  1024.6 hPa SW 4 mph /  6.4 km/h 8 mph /  12.9 km/h 61 % 0 in /  0.0 mm
12:57 60.3 °F /  15.7 °C 46.8 °F /  8.2 °C 30.3 in /  1024.6 hPa SSW 2 mph /  3.2 km/h 8 mph /  12.9 km/h 61 % 0 in /  0.0 mm
13:02 60.3 °F /  15.7 °C 47.1 °F /  8.4 °C 30.3 in /  1024.6 hPa ENE 1 mph /  1.6 km/h 7 mph /  11.3 km/h 62 % 0 in /  0.0 mm
13:07 60.1 °F /  15.6 °C 47.8 °F /  8.8 °C 30.3 in /  1024.9 hPa North 1 mph /  1.6 km/h 6 mph /  9.7 km/h 64 % 0 in /  0.0 mm
13:12 60.1 °F /  15.6 °C 48.2 °F /  9.0 °C 30.3 in /  1024.6 hPa NNE 1 mph /  1.6 km/h 3 mph /  4.8 km/h 65 % 0 in /  0.0 mm
13:17 60.1 °F /  15.6 °C 48.2 °F /  9.0 °C 30.3 in /  1024.6 hPa North 2 mph /  3.2 km/h 3 mph /  4.8 km/h 65 % 0 in /  0.0 mm
13:22 60.4 °F /  15.8 °C 47.3 °F /  8.5 °C 30.3 in /  1024.6 hPa East 1 mph /  1.6 km/h 3 mph /  4.8 km/h 62 % 0 in /  0.0 mm
13:32 61.9 °F /  16.6 °C 46.9 °F /  8.3 °C 30.3 in /  1024.3 hPa Calm   4 mph /  6.4 km/h 58 % 0 in /  0.0 mm
13:37 62.6 °F /  17.0 °C 46.8 °F /  8.2 °C 30.3 in /  1024.3 hPa SE 2 mph /  3.2 km/h 4 mph /  6.4 km/h 56 % 0 in /  0.0 mm
13:42 63.3 °F /  17.4 °C 48.4 °F /  9.1 °C 30.3 in /  1024.3 hPa ENE 1 mph /  1.6 km/h 4 mph /  6.4 km/h 58 % 0 in /  0.0 mm
13:47 63 °F /  17.2 °C 46 °F /  7.8 °C 30.3 in /  1024.3 hPa ENE 3 mph /  4.8 km/h 5 mph /  8.0 km/h 54 % 0 in /  0.0 mm
13:52 62.2 °F /  16.8 °C 46.4 °F /  8.0 °C 30.3 in /  1024.3 hPa ENE 2 mph /  3.2 km/h 6 mph /  9.7 km/h 56 % 0 in /  0.0 mm
13:57 62.1 °F /  16.7 °C 45.7 °F /  7.6 °C 30.3 in /  1024.3 hPa SSE 1 mph /  1.6 km/h 6 mph /  9.7 km/h 55 % 0 in /  0.0 mm
14:02 61.9 °F /  16.6 °C 46.4 °F /  8.0 °C 30.3 in /  1024.3 hPa ENE 2 mph /  3.2 km/h 4 mph /  6.4 km/h 57 % 0 in /  0.0 mm
14:07 61.9 °F /  16.6 °C 46.9 °F /  8.3 °C 30.3 in /  1024.3 hPa ENE 3 mph /  4.8 km/h 4 mph /  6.4 km/h 58 % 0 in /  0.0 mm
14:12 61.5 °F /  16.4 °C 45.7 °F /  7.6 °C 30.3 in /  1024.3 hPa East 1 mph /  1.6 km/h 4 mph /  6.4 km/h 56 % 0 in /  0.0 mm
14:17 61.7 °F /  16.5 °C 46.8 °F /  8.2 °C 30.3 in /  1024.3 hPa Calm   4 mph /  6.4 km/h 58 % 0 in /  0.0 mm
14:22 61.9 °F /  16.6 °C 46.4 °F /  8.0 °C 30.2 in /  1023.9 hPa Calm   4 mph /  6.4 km/h 57 % 0 in /  0.0 mm
14:27 62.2 °F /  16.8 °C 45.3 °F /  7.4 °C 30.2 in /  1023.9 hPa Calm   2 mph /  3.2 km/h 54 % 0 in /  0.0 mm
14:32 62.1 °F /  16.7 °C 45.1 °F /  7.3 °C 30.2 in /  1023.9 hPa Calm   2 mph /  3.2 km/h 54 % 0 in /  0.0 mm
14:37 62.1 °F /  16.7 °C 45.7 °F /  7.6 °C 30.2 in /  1023.9 hPa WNW 2 mph /  3.2 km/h 2 mph /  3.2 km/h 55 % 0 in /  0.0 mm
14:42 61.9 °F /  16.6 °C 45.1 °F /  7.3 °C 30.2 in /  1023.9 hPa Calm   2 mph /  3.2 km/h 54 % 0 in /  0.0 mm
14:47 61.7 °F /  16.5 °C 45.3 °F /  7.4 °C 30.2 in /  1023.9 hPa Calm   2 mph /  3.2 km/h 55 % 0 in /  0.0 mm
14:57 61.7 °F /  16.5 °C 45.3 °F /  7.4 °C 30.2 in /  1023.9 hPa Calm     55 % 0 in /  0.0 mm
15:02 61.5 °F /  16.4 °C 45.1 °F /  7.3 °C 30.2 in /  1023.9 hPa Calm     55 % 0 in /  0.0 mm
15:07 61.3 °F /  16.3 °C 45 °F /  7.2 °C 30.2 in /  1023.9 hPa Calm     55 % 0 in /  0.0 mm
15:12 61.3 °F /  16.3 °C 45 °F /  7.2 °C 30.2 in /  1023.9 hPa Calm     55 % 0 in /  0.0 mm
15:17 61.3 °F /  16.3 °C 46.4 °F /  8.0 °C 30.2 in /  1023.9 hPa Calm     58 % 0 in /  0.0 mm
15:22 61.5 °F /  16.4 °C 45.1 °F /  7.3 °C 30.2 in /  1023.9 hPa Calm     55 % 0 in /  0.0 mm
15:27 61.5 °F /  16.4 °C 45.1 °F /  7.3 °C 30.2 in /  1023.6 hPa Calm     55 % 0 in /  0.0 mm
15:32 61.7 °F /  16.5 °C 45.3 °F /  7.4 °C 30.2 in /  1023.6 hPa Calm     55 % 0 in /  0.0 mm
15:37 61.7 °F /  16.5 °C 45.3 °F /  7.4 °C 30.2 in /  1023.6 hPa Calm     55 % 0 in /  0.0 mm
15:42 61.5 °F /  16.4 °C 45.7 °F /  7.6 °C 30.2 in /  1023.6 hPa West 2 mph /  3.2 km/h   56 % 0 in /  0.0 mm
15:47 61.5 °F /  16.4 °C 46.2 °F /  7.9 °C 30.2 in /  1023.6 hPa West 4 mph /  6.4 km/h 4 mph /  6.4 km/h 57 % 0 in /  0.0 mm
15:52 61.3 °F /  16.3 °C 46.4 °F /  8.0 °C 30.2 in /  1023.6 hPa West 4 mph /  6.4 km/h 4 mph /  6.4 km/h 58 % 0 in /  0.0 mm
15:57 61.3 °F /  16.3 °C 46.4 °F /  8.0 °C 30.2 in /  1023.6 hPa West 2 mph /  3.2 km/h 4 mph /  6.4 km/h 58 % 0 in /  0.0 mm
16:02 61.2 °F /  16.2 °C 45.9 °F /  7.7 °C 30.2 in /  1023.6 hPa West 1 mph /  1.6 km/h 4 mph /  6.4 km/h 57 % 0 in /  0.0 mm
16:07 61 °F /  16.1 °C 45.1 °F /  7.3 °C 30.2 in /  1023.6 hPa West 3 mph /  4.8 km/h 4 mph /  6.4 km/h 56 % 0 in /  0.0 mm
16:12 60.8 °F /  16.0 °C 45.9 °F /  7.7 °C 30.2 in /  1023.6 hPa WSW 6 mph /  9.7 km/h 6 mph /  9.7 km/h 58 % 0 in /  0.0 mm
16:17 60.6 °F /  15.9 °C 45.7 °F /  7.6 °C 30.2 in /  1023.6 hPa West 3 mph /  4.8 km/h 6 mph /  9.7 km/h 58 % 0 in /  0.0 mm
16:22 60.3 °F /  15.7 °C 47.1 °F /  8.4 °C 30.2 in /  1023.6 hPa Calm   6 mph /  9.7 km/h 62 % 0 in /  0.0 mm
16:32 59.5 °F /  15.3 °C 46.9 °F /  8.3 °C 30.2 in /  1023.6 hPa NW 1 mph /  1.6 km/h 6 mph /  9.7 km/h 63 % 0 in /  0.0 mm
16:37 59.4 °F /  15.2 °C 46.4 °F /  8.0 °C 30.2 in /  1023.6 hPa Calm   5 mph /  8.0 km/h 62 % 0 in /  0.0 mm
16:42 59.2 °F /  15.1 °C 46.9 °F /  8.3 °C 30.2 in /  1023.6 hPa West 1 mph /  1.6 km/h 5 mph /  8.0 km/h 64 % 0 in /  0.0 mm
16:52 58.8 °F /  14.9 °C 46.6 °F /  8.1 °C 30.2 in /  1023.6 hPa West 1 mph /  1.6 km/h 2 mph /  3.2 km/h 64 % 0 in /  0.0 mm
16:57 59 °F /  15.0 °C 46.4 °F /  8.0 °C 30.2 in /  1023.2 hPa WNW 1 mph /  1.6 km/h 3 mph /  4.8 km/h 63 % 0 in /  0.0 mm
17:02 59 °F /  15.0 °C 46 °F /  7.8 °C 30.2 in /  1023.2 hPa WNW 5 mph /  8.0 km/h 5 mph /  8.0 km/h 62 % 0 in /  0.0 mm
17:07 58.8 °F /  14.9 °C 46.2 °F /  7.9 °C 30.2 in /  1023.6 hPa WSW 4 mph /  6.4 km/h 7 mph /  11.3 km/h 63 % 0 in /  0.0 mm
17:12 58.5 °F /  14.7 °C 46.4 °F /  8.0 °C 30.2 in /  1023.6 hPa West 4 mph /  6.4 km/h 10 mph /  16.1 km/h 64 % 0 in /  0.0 mm
17:17 58.1 °F /  14.5 °C 46.8 °F /  8.2 °C 30.2 in /  1023.6 hPa West 2 mph /  3.2 km/h 10 mph /  16.1 km/h 66 % 0 in /  0.0 mm
17:22 57.9 °F /  14.4 °C 46.9 °F /  8.3 °C 30.2 in /  1023.6 hPa NW 6 mph /  9.7 km/h 10 mph /  16.1 km/h 67 % 0 in /  0.0 mm
17:27 57.7 °F /  14.3 °C 46.9 °F /  8.3 °C 30.2 in /  1023.6 hPa NNW 3 mph /  4.8 km/h 10 mph /  16.1 km/h 67 % 0 in /  0.0 mm
17:32 57.9 °F /  14.4 °C 46.9 °F /  8.3 °C 30.2 in /  1023.6 hPa WNW 5 mph /  8.0 km/h 10 mph /  16.1 km/h 67 % 0 in /  0.0 mm
17:37 57.7 °F /  14.3 °C 46 °F /  7.8 °C 30.2 in /  1023.6 hPa WNW 2 mph /  3.2 km/h 9 mph /  14.5 km/h 65 % 0 in /  0.0 mm
17:42 57.6 °F /  14.2 °C 45.9 °F /  7.7 °C 30.2 in /  1023.6 hPa WNW 3 mph /  4.8 km/h 11 mph /  17.7 km/h 65 % 0 in /  0.0 mm
17:47 57.6 °F /  14.2 °C 46.2 °F /  7.9 °C 30.2 in /  1023.6 hPa WNW 5 mph /  8.0 km/h 11 mph /  17.7 km/h 66 % 0 in /  0.0 mm
17:52 57.4 °F /  14.1 °C 45.7 °F /  7.6 °C 30.2 in /  1023.6 hPa WNW 4 mph /  6.4 km/h 11 mph /  17.7 km/h 65 % 0 in /  0.0 mm
17:57 57.4 °F /  14.1 °C 45.7 °F /  7.6 °C 30.2 in /  1023.6 hPa NW 4 mph /  6.4 km/h 8 mph /  12.9 km/h 65 % 0 in /  0.0 mm
18:02 57.2 °F /  14.0 °C 45.5 °F /  7.5 °C 30.2 in /  1023.6 hPa WNW 3 mph /  4.8 km/h 8 mph /  12.9 km/h 65 % 0 in /  0.0 mm
18:12 57 °F /  13.9 °C 44.6 °F /  7.0 °C 30.2 in /  1023.6 hPa NW 3 mph /  4.8 km/h 7 mph /  11.3 km/h 63 % 0 in /  0.0 mm
18:17 57 °F /  13.9 °C 44.6 °F /  7.0 °C 30.2 in /  1023.6 hPa WNW 6 mph /  9.7 km/h 8 mph /  12.9 km/h 63 % 0 in /  0.0 mm
18:22 57 °F /  13.9 °C 44.6 °F /  7.0 °C 30.2 in /  1023.6 hPa WNW 3 mph /  4.8 km/h 8 mph /  12.9 km/h 63 % 0 in /  0.0 mm
18:32 57 °F /  13.9 °C 44.6 °F /  7.0 °C 30.2 in /  1023.9 hPa WNW 3 mph /  4.8 km/h 8 mph /  12.9 km/h 63 % 0 in /  0.0 mm
18:42 57 °F /  13.9 °C 43.7 °F /  6.5 °C 30.2 in /  1023.9 hPa WNW 5 mph /  8.0 km/h 8 mph /  12.9 km/h 61 % 0 in /  0.0 mm
18:47 57 °F /  13.9 °C 44.6 °F /  7.0 °C 30.2 in /  1023.9 hPa NW 4 mph /  6.4 km/h 8 mph /  12.9 km/h 63 % 0 in /  0.0 mm
18:52 56.8 °F /  13.8 °C 44.4 °F /  6.9 °C 30.2 in /  1023.9 hPa NW 3 mph /  4.8 km/h 7 mph /  11.3 km/h 63 % 0 in /  0.0 mm
18:57 56.7 °F /  13.7 °C 44.6 °F /  7.0 °C 30.2 in /  1023.9 hPa WNW 4 mph /  6.4 km/h 7 mph /  11.3 km/h 64 % 0 in /  0.0 mm
19:02 56.7 °F /  13.7 °C 44.6 °F /  7.0 °C 30.2 in /  1023.9 hPa WNW 1 mph /  1.6 km/h 5 mph /  8.0 km/h 64 % 0 in /  0.0 mm
19:07 56.5 °F /  13.6 °C 44.8 °F /  7.1 °C 30.2 in /  1023.9 hPa WNW 2 mph /  3.2 km/h 7 mph /  11.3 km/h 65 % 0 in /  0.0 mm
19:12 56.3 °F /  13.5 °C 44.6 °F /  7.0 °C 30.2 in /  1023.9 hPa NW 3 mph /  4.8 km/h 7 mph /  11.3 km/h 65 % 0 in /  0.0 mm
19:17 56.1 °F /  13.4 °C 45.3 °F /  7.4 °C 30.2 in /  1023.9 hPa West 2 mph /  3.2 km/h 7 mph /  11.3 km/h 67 % 0 in /  0.0 mm
19:22 55.8 °F /  13.2 °C 45.3 °F /  7.4 °C 30.2 in /  1023.9 hPa West 4 mph /  6.4 km/h 7 mph /  11.3 km/h 68 % 0 in /  0.0 mm
19:27 55.6 °F /  13.1 °C 45.5 °F /  7.5 °C 30.2 in /  1023.9 hPa West 3 mph /  4.8 km/h 7 mph /  11.3 km/h 69 % 0 in /  0.0 mm
19:32 55.2 °F /  12.9 °C 45.7 °F /  7.6 °C 30.2 in /  1023.9 hPa WNW 5 mph /  8.0 km/h 7 mph /  11.3 km/h 70 % 0 in /  0.0 mm
19:37 55 °F /  12.8 °C 45.9 °F /  7.7 °C 30.2 in /  1023.9 hPa WNW 5 mph /  8.0 km/h 7 mph /  11.3 km/h 71 % 0 in /  0.0 mm
19:42 54.9 °F /  12.7 °C 46 °F /  7.8 °C 30.3 in /  1024.3 hPa West 2 mph /  3.2 km/h 7 mph /  11.3 km/h 72 % 0 in /  0.0 mm
19:47 54.7 °F /  12.6 °C 45.9 °F /  7.7 °C 30.3 in /  1024.3 hPa West 2 mph /  3.2 km/h 7 mph /  11.3 km/h 72 % 0 in /  0.0 mm
19:52 54.3 °F /  12.4 °C 45.9 °F /  7.7 °C 30.2 in /  1023.9 hPa WNW 4 mph /  6.4 km/h 6 mph /  9.7 km/h 73 % 0 in /  0.0 mm
19:57 54.1 °F /  12.3 °C 46 °F /  7.8 °C 30.2 in /  1023.9 hPa WNW 3 mph /  4.8 km/h 6 mph /  9.7 km/h 74 % 0 in /  0.0 mm
20:02 54 °F /  12.2 °C 46.2 °F /  7.9 °C 30.2 in /  1023.9 hPa NW 2 mph /  3.2 km/h 5 mph /  8.0 km/h 75 % 0 in /  0.0 mm
20:07 53.8 °F /  12.1 °C 46 °F /  7.8 °C 30.2 in /  1023.9 hPa WNW 2 mph /  3.2 km/h 5 mph /  8.0 km/h 75 % 0 in /  0.0 mm
20:12 53.8 °F /  12.1 °C 46.4 °F /  8.0 °C 30.2 in /  1023.9 hPa West 2 mph /  3.2 km/h 5 mph /  8.0 km/h 76 % 0 in /  0.0 mm
20:17 53.4 °F /  11.9 °C 46.4 °F /  8.0 °C 30.2 in /  1023.9 hPa West 1 mph /  1.6 km/h 5 mph /  8.0 km/h 77 % 0 in /  0.0 mm
20:22 53.4 °F /  11.9 °C 46.4 °F /  8.0 °C 30.2 in /  1023.9 hPa WSW 1 mph /  1.6 km/h 5 mph /  8.0 km/h 77 % 0 in /  0.0 mm
20:27 53.4 °F /  11.9 °C 46.4 °F /  8.0 °C 30.2 in /  1023.9 hPa NW 3 mph /  4.8 km/h 4 mph /  6.4 km/h 77 % 0 in /  0.0 mm
20:32 53.4 °F /  11.9 °C 46.8 °F /  8.2 °C 30.2 in /  1023.9 hPa NW 1 mph /  1.6 km/h 5 mph /  8.0 km/h 78 % 0 in /  0.0 mm
20:37 53.2 °F /  11.8 °C 46.6 °F /  8.1 °C 30.2 in /  1023.9 hPa WNW 3 mph /  4.8 km/h 5 mph /  8.0 km/h 78 % 0 in /  0.0 mm
20:42 53.2 °F /  11.8 °C 46.6 °F /  8.1 °C 30.3 in /  1024.3 hPa West 1 mph /  1.6 km/h 5 mph /  8.0 km/h 78 % 0 in /  0.0 mm
20:47 53.2 °F /  11.8 °C 46.6 °F /  8.1 °C 30.3 in /  1024.3 hPa WNW 3 mph /  4.8 km/h 5 mph /  8.0 km/h 78 % 0 in /  0.0 mm
20:52 53.4 °F /  11.9 °C 46.4 °F /  8.0 °C 30.3 in /  1024.3 hPa WNW 4 mph /  6.4 km/h 5 mph /  8.0 km/h 77 % 0 in /  0.0 mm
20:57 53.4 °F /  11.9 °C 46 °F /  7.8 °C 30.3 in /  1024.3 hPa WNW 2 mph /  3.2 km/h 5 mph /  8.0 km/h 76 % 0 in /  0.0 mm
21:02 53.4 °F /  11.9 °C 46 °F /  7.8 °C 30.3 in /  1024.3 hPa WNW 1 mph /  1.6 km/h 5 mph /  8.0 km/h 76 % 0 in /  0.0 mm
21:07 53.6 °F /  12.0 °C 45.9 °F /  7.7 °C 30.3 in /  1024.3 hPa WNW 5 mph /  8.0 km/h 6 mph /  9.7 km/h 75 % 0 in /  0.0 mm
21:12 53.8 °F /  12.1 °C 45.7 °F /  7.6 °C 30.3 in /  1024.3 hPa WNW 3 mph /  4.8 km/h 6 mph /  9.7 km/h 74 % 0 in /  0.0 mm
21:17 54 °F /  12.2 °C 45.9 °F /  7.7 °C 30.3 in /  1024.3 hPa NW 4 mph /  6.4 km/h 6 mph /  9.7 km/h 74 % 0 in /  0.0 mm
21:22 54 °F /  12.2 °C 45.9 °F /  7.7 °C 30.3 in /  1024.3 hPa WNW 4 mph /  6.4 km/h 8 mph /  12.9 km/h 74 % 0 in /  0.0 mm
21:32 54 °F /  12.2 °C 45.5 °F /  7.5 °C 30.3 in /  1024.3 hPa WNW 5 mph /  8.0 km/h 8 mph /  12.9 km/h 73 % 0 in /  0.0 mm
21:37 54.1 °F /  12.3 °C 45.7 °F /  7.6 °C 30.3 in /  1024.3 hPa WNW 4 mph /  6.4 km/h 7 mph /  11.3 km/h 73 % 0 in /  0.0 mm
21:42 54.1 °F /  12.3 °C 45.7 °F /  7.6 °C 30.3 in /  1024.3 hPa NW 1 mph /  1.6 km/h 7 mph /  11.3 km/h 73 % 0 in /  0.0 mm
21:47 54 °F /  12.2 °C 45.1 °F /  7.3 °C 30.3 in /  1024.3 hPa NW 2 mph /  3.2 km/h 9 mph /  14.5 km/h 72 % 0 in /  0.0 mm
21:52 54 °F /  12.2 °C 45.1 °F /  7.3 °C 30.3 in /  1024.3 hPa WNW 2 mph /  3.2 km/h 9 mph /  14.5 km/h 72 % 0 in /  0.0 mm
21:57 54 °F /  12.2 °C 45.1 °F /  7.3 °C 30.3 in /  1024.3 hPa NW 5 mph /  8.0 km/h 7 mph /  11.3 km/h 72 % 0 in /  0.0 mm
22:02 54 °F /  12.2 °C 45.5 °F /  7.5 °C 30.3 in /  1024.6 hPa WNW 2 mph /  3.2 km/h 7 mph /  11.3 km/h 73 % 0 in /  0.0 mm
22:07 54 °F /  12.2 °C 45.5 °F /  7.5 °C 30.3 in /  1024.6 hPa WNW 3 mph /  4.8 km/h 9 mph /  14.5 km/h 73 % 0 in /  0.0 mm
22:12 54 °F /  12.2 °C 45.9 °F /  7.7 °C 30.3 in /  1024.6 hPa West 2 mph /  3.2 km/h 9 mph /  14.5 km/h 74 % 0 in /  0.0 mm
22:17 54 °F /  12.2 °C 45.9 °F /  7.7 °C 30.3 in /  1024.6 hPa WNW 7 mph /  11.3 km/h 9 mph /  14.5 km/h 74 % 0 in /  0.0 mm
22:22 54 °F /  12.2 °C 45.9 °F /  7.7 °C 30.3 in /  1024.6 hPa WNW 5 mph /  8.0 km/h 9 mph /  14.5 km/h 74 % 0 in /  0.0 mm
22:27 53.8 °F /  12.1 °C 46 °F /  7.8 °C 30.3 in /  1024.6 hPa WNW 5 mph /  8.0 km/h 9 mph /  14.5 km/h 75 % 0 in /  0.0 mm
22:32 53.8 °F /  12.1 °C 46.4 °F /  8.0 °C 30.3 in /  1024.6 hPa WSW 2 mph /  3.2 km/h 9 mph /  14.5 km/h 76 % 0 in /  0.0 mm
22:37 53.8 °F /  12.1 °C 46.4 °F /  8.0 °C 30.3 in /  1024.6 hPa NW 5 mph /  8.0 km/h 9 mph /  14.5 km/h 76 % 0 in /  0.0 mm
22:42 53.8 °F /  12.1 °C 46.8 °F /  8.2 °C 30.3 in /  1024.6 hPa West 4 mph /  6.4 km/h 9 mph /  14.5 km/h 77 % 0 in /  0.0 mm
22:47 53.6 °F /  12.0 °C 46.6 °F /  8.1 °C 30.3 in /  1024.6 hPa NW 1 mph /  1.6 km/h 9 mph /  14.5 km/h 77 % 0 in /  0.0 mm
22:52 53.6 °F /  12.0 °C 46.9 °F /  8.3 °C 30.3 in /  1024.6 hPa NNW 1 mph /  1.6 km/h 9 mph /  14.5 km/h 78 % 0 in /  0.0 mm
22:57 53.6 °F /  12.0 °C 46.9 °F /  8.3 °C 30.3 in /  1024.6 hPa WNW 3 mph /  4.8 km/h 9 mph /  14.5 km/h 78 % 0 in /  0.0 mm
23:02 53.6 °F /  12.0 °C 46.9 °F /  8.3 °C 30.3 in /  1024.6 hPa NW 7 mph /  11.3 km/h 7 mph /  11.3 km/h 78 % 0 in /  0.0 mm
23:07 53.4 °F /  11.9 °C 47.1 °F /  8.4 °C 30.3 in /  1024.6 hPa NW 2 mph /  3.2 km/h 10 mph /  16.1 km/h 79 % 0 in /  0.0 mm
23:12 53.4 °F /  11.9 °C 47.1 °F /  8.4 °C 30.3 in /  1024.6 hPa WNW 1 mph /  1.6 km/h 10 mph /  16.1 km/h 79 % 0 in /  0.0 mm
23:17 53.4 °F /  11.9 °C 47.1 °F /  8.4 °C 30.3 in /  1024.6 hPa NW 3 mph /  4.8 km/h 10 mph /  16.1 km/h 79 % 0 in /  0.0 mm
23:22 53.4 °F /  11.9 °C 47.1 °F /  8.4 °C 30.3 in /  1024.6 hPa NNW 2 mph /  3.2 km/h 9 mph /  14.5 km/h 79 % 0 in /  0.0 mm
23:27 53.4 °F /  11.9 °C 47.1 °F /  8.4 °C 30.3 in /  1024.6 hPa NW 3 mph /  4.8 km/h 9 mph /  14.5 km/h 79 % 0 in /  0.0 mm
23:32 53.4 °F /  11.9 °C 46.8 °F /  8.2 °C 30.3 in /  1024.6 hPa NW 5 mph /  8.0 km/h 9 mph /  14.5 km/h 78 % 0 in /  0.0 mm
23:37 53.4 °F /  11.9 °C 46.8 °F /  8.2 °C 30.3 in /  1024.6 hPa NNW 6 mph /  9.7 km/h 9 mph /  14.5 km/h 78 % 0 in /  0.0 mm
23:42 53.8 °F /  12.1 °C 46.8 °F /  8.2 °C 30.3 in /  1024.9 hPa NNW 6 mph /  9.7 km/h 9 mph /  14.5 km/h 77 % 0 in /  0.0 mm
23:47 53.8 °F /  12.1 °C 46.4 °F /  8.0 °C 30.3 in /  1024.9 hPa North 12 mph /  19.3 km/h 13 mph /  20.9 km/h 76 % 0 in /  0.0 mm
23:52 54 °F /  12.2 °C 46.6 °F /  8.1 °C 30.3 in /  1024.9 hPa NNW 10 mph /  16.1 km/h 14 mph /  22.5 km/h 76 % 0 in /  0.0 mm
23:57 54 °F /  12.2 °C 46.2 °F /  7.9 °C 30.3 in /  1024.6 hPa North 7 mph /  11.3 km/h 14 mph /  22.5 km/h 75 % 0 in /  0.0 mm
Meteo18
Compliments of Weather Underground - 4 mb

Script developed by  Jim McMurry - jmcmurry@mwt.net Adapted for the template by  Wim van der Kuil - Leuven-Template.eu

You find our weather info also at:

European Weather Network

Weather Underground

Equipment we use:

Weather-station
Davis Vue

Weather-program
Meteohub

Weather-server
Raspberry PI 2 B+

Provider
1 and 1

Davis Vue

Meteohub

Raspberry PI 2 B+

1 and 1